sensor_id;sensor_type;location;lat;lon;timestamp;P1;durP1;ratioP1;P2;durP2;ratioP2
61336;SDS011;47212;41.326;2.104;2023-02-13T00:08:25;8.97;;;6.13;;
61336;SDS011;47212;41.326;2.104;2023-02-13T00:13:28;11.55;;;7.88;;
61336;SDS011;47212;41.326;2.104;2023-02-13T00:18:32;9.38;;;7.00;;
61336;SDS011;47212;41.326;2.104;2023-02-13T00:23:37;10.00;;;7.88;;
61336;SDS011;47212;41.326;2.104;2023-02-13T00:28:41;11.45;;;7.68;;
61336;SDS011;47212;41.326;2.104;2023-02-13T00:33:43;13.43;;;9.70;;
61336;SDS011;47212;41.326;2.104;2023-02-13T00:38:47;15.52;;;9.57;;
61336;SDS011;47212;41.326;2.104;2023-02-13T00:48:52;12.00;;;7.68;;
61336;SDS011;47212;41.326;2.104;2023-02-13T00:53:54;12.10;;;8.15;;
61336;SDS011;47212;41.326;2.104;2023-02-13T00:58:56;11.30;;;7.93;;
61336;SDS011;47212;41.326;2.104;2023-02-13T01:03:59;10.40;;;8.15;;
61336;SDS011;47212;41.326;2.104;2023-02-13T01:14:04;10.27;;;7.65;;
61336;SDS011;47212;41.326;2.104;2023-02-13T01:19:06;10.23;;;7.82;;
61336;SDS011;47212;41.326;2.104;2023-02-13T01:24:08;11.40;;;7.85;;
61336;SDS011;47212;41.326;2.104;2023-02-13T01:29:11;12.93;;;8.65;;
61336;SDS011;47212;41.326;2.104;2023-02-13T01:34:14;12.88;;;7.65;;
61336;SDS011;47212;41.326;2.104;2023-02-13T01:39:16;13.88;;;7.85;;
61336;SDS011;47212;41.326;2.104;2023-02-13T01:50:06;15.10;;;9.43;;
61336;SDS011;47212;41.326;2.104;2023-02-13T01:55:16;14.32;;;9.05;;
61336;SDS011;47212;41.326;2.104;2023-02-13T02:05:12;11.60;;;8.18;;
61336;SDS011;47212;41.326;2.104;2023-02-13T02:10:18;11.43;;;8.52;;
61336;SDS011;47212;41.326;2.104;2023-02-13T02:15:21;13.00;;;9.80;;
61336;SDS011;47212;41.326;2.104;2023-02-13T02:36:31;10.88;;;8.07;;
61336;SDS011;47212;41.326;2.104;2023-02-13T02:47:55;10.82;;;7.35;;
61336;SDS011;47212;41.326;2.104;2023-02-13T02:53:14;11.20;;;8.10;;
61336;SDS011;47212;41.326;2.104;2023-02-13T02:58:40;17.00;;;9.43;;
61336;SDS011;47212;41.326;2.104;2023-02-13T03:04:11;13.43;;;9.38;;
61336;SDS011;47212;41.326;2.104;2023-02-13T03:09:48;14.35;;;8.73;;
61336;SDS011;47212;41.326;2.104;2023-02-13T03:15:12;10.15;;;7.88;;
61336;SDS011;47212;41.326;2.104;2023-02-13T03:20:19;13.90;;;8.93;;
61336;SDS011;47212;41.326;2.104;2023-02-13T03:47:20;16.17;;;8.65;;
61336;SDS011;47212;41.326;2.104;2023-02-13T03:52:25;13.18;;;8.52;;
61336;SDS011;47212;41.326;2.104;2023-02-13T03:57:32;12.60;;;9.15;;
61336;SDS011;47212;41.326;2.104;2023-02-13T04:02:57;11.02;;;7.50;;
61336;SDS011;47212;41.326;2.104;2023-02-13T04:08:20;12.00;;;7.95;;
61336;SDS011;47212;41.326;2.104;2023-02-13T04:13:38;10.50;;;7.43;;
61336;SDS011;47212;41.326;2.104;2023-02-13T04:19:06;12.15;;;7.15;;
61336;SDS011;47212;41.326;2.104;2023-02-13T04:24:10;9.73;;;7.32;;
61336;SDS011;47212;41.326;2.104;2023-02-13T04:29:13;10.35;;;8.02;;
61336;SDS011;47212;41.326;2.104;2023-02-13T04:34:15;10.25;;;8.13;;
61336;SDS011;47212;41.326;2.104;2023-02-13T04:44:19;10.75;;;7.80;;
61336;SDS011;47212;41.326;2.104;2023-02-13T04:49:22;13.80;;;8.80;;
61336;SDS011;47212;41.326;2.104;2023-02-13T04:54:24;14.20;;;8.75;;
61336;SDS011;47212;41.326;2.104;2023-02-13T04:59:26;14.52;;;9.50;;
61336;SDS011;47212;41.326;2.104;2023-02-13T05:04:28;11.57;;;7.75;;
61336;SDS011;47212;41.326;2.104;2023-02-13T05:09:40;10.98;;;8.50;;
61336;SDS011;47212;41.326;2.104;2023-02-13T05:14:44;11.93;;;8.52;;
61336;SDS011;47212;41.326;2.104;2023-02-13T05:19:54;11.23;;;6.90;;
61336;SDS011;47212;41.326;2.104;2023-02-13T05:25:14;12.38;;;7.97;;
61336;SDS011;47212;41.326;2.104;2023-02-13T05:30:19;12.38;;;7.57;;
61336;SDS011;47212;41.326;2.104;2023-02-13T05:35:21;13.07;;;7.97;;
61336;SDS011;47212;41.326;2.104;2023-02-13T05:40:29;9.90;;;7.78;;
61336;SDS011;47212;41.326;2.104;2023-02-13T05:45:38;12.15;;;8.40;;
61336;SDS011;47212;41.326;2.104;2023-02-13T05:50:45;11.35;;;8.00;;
61336;SDS011;47212;41.326;2.104;2023-02-13T05:55:50;14.05;;;8.57;;
61336;SDS011;47212;41.326;2.104;2023-02-13T06:00:56;12.75;;;7.68;;
61336;SDS011;47212;41.326;2.104;2023-02-13T06:06:11;18.05;;;8.95;;
61336;SDS011;47212;41.326;2.104;2023-02-13T06:11:16;14.20;;;8.45;;
61336;SDS011;47212;41.326;2.104;2023-02-13T06:16:21;13.57;;;8.63;;
61336;SDS011;47212;41.326;2.104;2023-02-13T06:21:29;14.23;;;8.60;;
61336;SDS011;47212;41.326;2.104;2023-02-13T06:26:33;12.40;;;7.78;;
61336;SDS011;47212;41.326;2.104;2023-02-13T06:31:48;16.38;;;8.15;;
61336;SDS011;47212;41.326;2.104;2023-02-13T06:36:55;15.00;;;8.87;;
61336;SDS011;47212;41.326;2.104;2023-02-13T06:42:02;14.13;;;9.23;;
61336;SDS011;47212;41.326;2.104;2023-02-13T06:47:09;14.50;;;9.25;;
61336;SDS011;47212;41.326;2.104;2023-02-13T06:52:15;14.90;;;9.25;;
61336;SDS011;47212;41.326;2.104;2023-02-13T06:57:29;13.05;;;8.30;;
61336;SDS011;47212;41.326;2.104;2023-02-13T07:02:45;12.65;;;8.65;;
61336;SDS011;47212;41.326;2.104;2023-02-13T07:07:49;15.05;;;9.57;;
61336;SDS011;47212;41.326;2.104;2023-02-13T07:13:00;10.95;;;8.32;;
61336;SDS011;47212;41.326;2.104;2023-02-13T07:23:20;14.70;;;8.90;;
61336;SDS011;47212;41.326;2.104;2023-02-13T07:28:30;14.95;;;8.90;;
61336;SDS011;47212;41.326;2.104;2023-02-13T07:33:36;10.52;;;7.82;;
61336;SDS011;47212;41.326;2.104;2023-02-13T07:38:44;10.40;;;8.13;;
61336;SDS011;47212;41.326;2.104;2023-02-13T07:43:48;10.00;;;7.03;;
61336;SDS011;47212;41.326;2.104;2023-02-13T07:48:59;11.35;;;8.10;;
61336;SDS011;47212;41.326;2.104;2023-02-13T07:54:04;13.50;;;8.45;;
61336;SDS011;47212;41.326;2.104;2023-02-13T07:59:09;11.57;;;8.55;;
61336;SDS011;47212;41.326;2.104;2023-02-13T08:04:20;21.10;;;11.13;;
61336;SDS011;47212;41.326;2.104;2023-02-13T08:09:28;19.02;;;10.68;;
61336;SDS011;47212;41.326;2.104;2023-02-13T08:15:02;16.20;;;10.27;;
61336;SDS011;47212;41.326;2.104;2023-02-13T08:20:11;15.00;;;9.48;;
61336;SDS011;47212;41.326;2.104;2023-02-13T08:25:18;16.17;;;10.95;;
61336;SDS011;47212;41.326;2.104;2023-02-13T08:30:24;16.08;;;10.52;;
61336;SDS011;47212;41.326;2.104;2023-02-13T08:35:29;22.13;;;10.60;;
61336;SDS011;47212;41.326;2.104;2023-02-13T08:40:34;15.80;;;9.68;;
61336;SDS011;47212;41.326;2.104;2023-02-13T08:45:42;13.55;;;8.93;;
61336;SDS011;47212;41.326;2.104;2023-02-13T08:50:48;11.73;;;8.52;;
61336;SDS011;47212;41.326;2.104;2023-02-13T08:55:52;12.20;;;8.40;;
61336;SDS011;47212;41.326;2.104;2023-02-13T09:01:07;12.02;;;8.05;;
61336;SDS011;47212;41.326;2.104;2023-02-13T09:06:22;22.48;;;8.05;;
61336;SDS011;47212;41.326;2.104;2023-02-13T09:11:29;19.85;;;11.65;;
61336;SDS011;47212;41.326;2.104;2023-02-13T09:16:35;12.52;;;9.07;;
61336;SDS011;47212;41.326;2.104;2023-02-13T09:21:43;20.70;;;9.57;;
61336;SDS011;47212;41.326;2.104;2023-02-13T09:26:45;14.93;;;9.45;;
61336;SDS011;47212;41.326;2.104;2023-02-13T09:31:51;14.63;;;9.32;;
61336;SDS011;47212;41.326;2.104;2023-02-13T09:37:01;12.68;;;9.88;;
61336;SDS011;47212;41.326;2.104;2023-02-13T09:42:20;20.20;;;10.90;;
61336;SDS011;47212;41.326;2.104;2023-02-13T09:47:31;13.50;;;8.90;;
61336;SDS011;47212;41.326;2.104;2023-02-13T09:52:49;11.98;;;9.15;;
61336;SDS011;47212;41.326;2.104;2023-02-13T10:03:36;10.38;;;7.55;;
61336;SDS011;47212;41.326;2.104;2023-02-13T10:09:37;14.33;;;8.33;;
61336;SDS011;47212;41.326;2.104;2023-02-13T10:20:27;11.20;;;7.03;;
61336;SDS011;47212;41.326;2.104;2023-02-13T10:26:00;10.77;;;7.10;;
61336;SDS011;47212;41.326;2.104;2023-02-13T10:31:19;9.98;;;7.13;;
61336;SDS011;47212;41.326;2.104;2023-02-13T10:36:33;9.90;;;6.90;;
61336;SDS011;47212;41.326;2.104;2023-02-13T10:41:54;13.90;;;6.63;;
61336;SDS011;47212;41.326;2.104;2023-02-13T10:53:11;9.00;;;6.00;;
61336;SDS011;47212;41.326;2.104;2023-02-13T11:04:09;8.70;;;6.32;;
61336;SDS011;47212;41.326;2.104;2023-02-13T11:09:32;6.53;;;5.65;;
61336;SDS011;47212;41.326;2.104;2023-02-13T11:14:54;9.10;;;6.05;;
61336;SDS011;47212;41.326;2.104;2023-02-13T11:26:03;6.50;;;4.05;;
61336;SDS011;47212;41.326;2.104;2023-02-13T11:31:24;5.78;;;4.05;;
61336;SDS011;47212;41.326;2.104;2023-02-13T11:37:13;7.22;;;4.68;;
61336;SDS011;47212;41.326;2.104;2023-02-13T11:42:33;6.38;;;4.05;;
61336;SDS011;47212;41.326;2.104;2023-02-13T11:47:40;6.88;;;3.78;;
61336;SDS011;47212;41.326;2.104;2023-02-13T11:58:25;4.80;;;3.70;;
61336;SDS011;47212;41.326;2.104;2023-02-13T12:04:05;5.45;;;3.78;;
61336;SDS011;47212;41.326;2.104;2023-02-13T12:09:21;5.97;;;3.72;;
61336;SDS011;47212;41.326;2.104;2023-02-13T12:14:42;6.38;;;3.92;;
61336;SDS011;47212;41.326;2.104;2023-02-13T12:19:56;5.23;;;3.60;;
61336;SDS011;47212;41.326;2.104;2023-02-13T12:25:09;6.25;;;3.45;;
61336;SDS011;47212;41.326;2.104;2023-02-13T12:42:22;6.50;;;4.30;;
61336;SDS011;47212;41.326;2.104;2023-02-13T12:58:47;5.57;;;3.78;;
61336;SDS011;47212;41.326;2.104;2023-02-13T13:04:13;6.70;;;3.78;;
61336;SDS011;47212;41.326;2.104;2023-02-13T13:09:34;6.07;;;3.30;;
61336;SDS011;47212;41.326;2.104;2023-02-13T13:31:28;4.63;;;3.45;;
61336;SDS011;47212;41.326;2.104;2023-02-13T13:41:53;3.90;;;2.92;;
61336;SDS011;47212;41.326;2.104;2023-02-13T14:03:41;3.97;;;3.20;;
61336;SDS011;47212;41.326;2.104;2023-02-13T14:08:59;5.72;;;3.10;;
61336;SDS011;47212;41.326;2.104;2023-02-13T14:19:36;4.28;;;3.10;;
61336;SDS011;47212;41.326;2.104;2023-02-13T14:25:04;5.82;;;3.15;;
61336;SDS011;47212;41.326;2.104;2023-02-13T14:30:35;3.80;;;2.85;;
61336;SDS011;47212;41.326;2.104;2023-02-13T14:35:47;4.82;;;3.40;;
61336;SDS011;47212;41.326;2.104;2023-02-13T14:46:55;4.60;;;3.17;;
61336;SDS011;47212;41.326;2.104;2023-02-13T14:52:06;5.47;;;3.05;;
61336;SDS011;47212;41.326;2.104;2023-02-13T14:57:46;8.40;;;3.75;;
61336;SDS011;47212;41.326;2.104;2023-02-13T15:02:58;5.18;;;3.78;;
61336;SDS011;47212;41.326;2.104;2023-02-13T15:08:13;4.85;;;3.45;;
61336;SDS011;47212;41.326;2.104;2023-02-13T15:13:30;6.30;;;3.25;;
61336;SDS011;47212;41.326;2.104;2023-02-13T15:18:47;6.63;;;2.92;;
61336;SDS011;47212;41.326;2.104;2023-02-13T15:23:55;4.88;;;3.40;;
61336;SDS011;47212;41.326;2.104;2023-02-13T15:29:16;4.50;;;2.83;;
61336;SDS011;47212;41.326;2.104;2023-02-13T15:34:37;4.80;;;3.88;;
61336;SDS011;47212;41.326;2.104;2023-02-13T15:39:51;5.50;;;3.30;;
61336;SDS011;47212;41.326;2.104;2023-02-13T15:45:00;4.85;;;3.45;;
61336;SDS011;47212;41.326;2.104;2023-02-13T15:50:18;4.00;;;2.83;;
61336;SDS011;47212;41.326;2.104;2023-02-13T15:55:38;5.32;;;2.90;;
61336;SDS011;47212;41.326;2.104;2023-02-13T16:00:46;6.53;;;3.47;;
61336;SDS011;47212;41.326;2.104;2023-02-13T16:05:53;5.38;;;3.60;;
61336;SDS011;47212;41.326;2.104;2023-02-13T16:16:59;4.15;;;3.00;;
61336;SDS011;47212;41.326;2.104;2023-02-13T16:27:31;6.28;;;3.95;;
61336;SDS011;47212;41.326;2.104;2023-02-13T16:32:39;6.88;;;4.13;;
61336;SDS011;47212;41.326;2.104;2023-02-13T16:37:48;5.35;;;3.72;;
61336;SDS011;47212;41.326;2.104;2023-02-13T16:43:31;6.28;;;3.88;;
61336;SDS011;47212;41.326;2.104;2023-02-13T17:04:54;6.75;;;4.43;;
61336;SDS011;47212;41.326;2.104;2023-02-13T17:10:16;5.88;;;3.63;;
61336;SDS011;47212;41.326;2.104;2023-02-13T17:15:42;4.65;;;3.60;;
61336;SDS011;47212;41.326;2.104;2023-02-13T17:20:45;6.80;;;3.80;;
61336;SDS011;47212;41.326;2.104;2023-02-13T17:25:49;5.15;;;3.88;;
61336;SDS011;47212;41.326;2.104;2023-02-13T17:30:55;6.43;;;4.03;;
61336;SDS011;47212;41.326;2.104;2023-02-13T17:36:02;5.25;;;4.15;;
61336;SDS011;47212;41.326;2.104;2023-02-13T17:41:13;5.75;;;3.72;;
61336;SDS011;47212;41.326;2.104;2023-02-13T17:46:19;5.97;;;4.25;;
61336;SDS011;47212;41.326;2.104;2023-02-13T17:51:24;6.32;;;4.53;;
61336;SDS011;47212;41.326;2.104;2023-02-13T17:56:31;5.82;;;3.95;;
61336;SDS011;47212;41.326;2.104;2023-02-13T18:01:37;6.07;;;4.60;;
61336;SDS011;47212;41.326;2.104;2023-02-13T18:06:42;6.50;;;4.53;;
61336;SDS011;47212;41.326;2.104;2023-02-13T18:11:48;5.53;;;4.22;;
61336;SDS011;47212;41.326;2.104;2023-02-13T18:17:08;6.85;;;4.43;;
61336;SDS011;47212;41.326;2.104;2023-02-13T18:22:22;4.85;;;4.05;;
61336;SDS011;47212;41.326;2.104;2023-02-13T18:27:30;6.57;;;5.30;;
61336;SDS011;47212;41.326;2.104;2023-02-13T18:32:36;6.45;;;4.80;;
61336;SDS011;47212;41.326;2.104;2023-02-13T18:37:41;5.93;;;4.65;;
61336;SDS011;47212;41.326;2.104;2023-02-13T18:42:46;6.03;;;4.63;;
61336;SDS011;47212;41.326;2.104;2023-02-13T18:47:53;7.05;;;5.28;;
61336;SDS011;47212;41.326;2.104;2023-02-13T18:52:58;10.10;;;5.80;;
61336;SDS011;47212;41.326;2.104;2023-02-13T18:58:05;8.60;;;5.50;;
61336;SDS011;47212;41.326;2.104;2023-02-13T19:03:27;5.22;;;4.13;;
61336;SDS011;47212;41.326;2.104;2023-02-13T19:08:30;6.00;;;5.18;;
61336;SDS011;47212;41.326;2.104;2023-02-13T19:13:35;8.27;;;5.45;;
61336;SDS011;47212;41.326;2.104;2023-02-13T19:18:41;8.07;;;5.35;;
61336;SDS011;47212;41.326;2.104;2023-02-13T19:23:55;6.53;;;5.43;;
61336;SDS011;47212;41.326;2.104;2023-02-13T19:29:03;7.53;;;6.15;;
61336;SDS011;47212;41.326;2.104;2023-02-13T19:34:11;8.10;;;6.05;;
61336;SDS011;47212;41.326;2.104;2023-02-13T19:39:19;8.13;;;5.93;;
61336;SDS011;47212;41.326;2.104;2023-02-13T19:44:25;6.78;;;5.43;;
61336;SDS011;47212;41.326;2.104;2023-02-13T19:49:31;9.10;;;6.40;;
61336;SDS011;47212;41.326;2.104;2023-02-13T19:54:35;10.63;;;7.53;;
61336;SDS011;47212;41.326;2.104;2023-02-13T19:59:40;9.13;;;6.78;;
61336;SDS011;47212;41.326;2.104;2023-02-13T20:04:47;7.07;;;5.55;;
61336;SDS011;47212;41.326;2.104;2023-02-13T20:09:51;10.10;;;6.65;;
61336;SDS011;47212;41.326;2.104;2023-02-13T20:14:57;14.55;;;7.68;;
61336;SDS011;47212;41.326;2.104;2023-02-13T20:20:02;11.57;;;7.88;;
61336;SDS011;47212;41.326;2.104;2023-02-13T20:25:10;13.52;;;8.95;;
61336;SDS011;47212;41.326;2.104;2023-02-13T20:30:14;11.35;;;9.63;;
61336;SDS011;47212;41.326;2.104;2023-02-13T20:35:19;13.15;;;10.80;;
61336;SDS011;47212;41.326;2.104;2023-02-13T20:40:26;17.33;;;10.40;;
61336;SDS011;47212;41.326;2.104;2023-02-13T20:45:31;13.45;;;10.20;;
61336;SDS011;47212;41.326;2.104;2023-02-13T20:50:41;15.48;;;11.35;;
61336;SDS011;47212;41.326;2.104;2023-02-13T20:55:51;17.65;;;10.80;;
61336;SDS011;47212;41.326;2.104;2023-02-13T21:01:00;14.60;;;11.98;;
61336;SDS011;47212;41.326;2.104;2023-02-13T21:06:06;16.60;;;10.93;;
61336;SDS011;47212;41.326;2.104;2023-02-13T21:11:13;13.48;;;10.20;;
61336;SDS011;47212;41.326;2.104;2023-02-13T21:23:17;12.38;;;9.57;;
61336;SDS011;47212;41.326;2.104;2023-02-13T21:28:24;14.38;;;11.43;;
61336;SDS011;47212;41.326;2.104;2023-02-13T21:33:31;14.10;;;10.40;;
61336;SDS011;47212;41.326;2.104;2023-02-13T21:38:33;13.20;;;10.10;;
61336;SDS011;47212;41.326;2.104;2023-02-13T21:43:40;16.02;;;12.02;;
61336;SDS011;47212;41.326;2.104;2023-02-13T21:48:53;17.65;;;12.98;;
61336;SDS011;47212;41.326;2.104;2023-02-13T21:54:09;29.80;;;18.10;;
61336;SDS011;47212;41.326;2.104;2023-02-13T21:59:37;20.43;;;13.30;;
61336;SDS011;47212;41.326;2.104;2023-02-13T22:04:56;17.88;;;11.63;;
61336;SDS011;47212;41.326;2.104;2023-02-13T22:10:02;12.30;;;9.55;;
61336;SDS011;47212;41.326;2.104;2023-02-13T22:15:10;14.77;;;10.35;;
61336;SDS011;47212;41.326;2.104;2023-02-13T22:20:18;12.80;;;9.82;;
61336;SDS011;47212;41.326;2.104;2023-02-13T22:25:25;11.05;;;8.70;;
61336;SDS011;47212;41.326;2.104;2023-02-13T22:30:29;12.70;;;8.60;;
61336;SDS011;47212;41.326;2.104;2023-02-13T22:35:38;12.85;;;9.95;;
61336;SDS011;47212;41.326;2.104;2023-02-13T22:40:44;15.85;;;9.88;;
61336;SDS011;47212;41.326;2.104;2023-02-13T22:45:52;15.27;;;11.73;;
61336;SDS011;47212;41.326;2.104;2023-02-13T22:50:56;16.02;;;11.98;;
61336;SDS011;47212;41.326;2.104;2023-02-13T22:56:03;16.23;;;11.65;;
61336;SDS011;47212;41.326;2.104;2023-02-13T23:01:10;15.98;;;11.02;;
61336;SDS011;47212;41.326;2.104;2023-02-13T23:06:22;20.20;;;11.65;;
61336;SDS011;47212;41.326;2.104;2023-02-13T23:11:30;17.20;;;12.57;;
61336;SDS011;47212;41.326;2.104;2023-02-13T23:16:54;17.13;;;11.85;;
61336;SDS011;47212;41.326;2.104;2023-02-13T23:22:16;14.10;;;11.33;;
61336;SDS011;47212;41.326;2.104;2023-02-13T23:27:23;14.43;;;11.00;;
61336;SDS011;47212;41.326;2.104;2023-02-13T23:32:29;20.27;;;11.98;;
61336;SDS011;47212;41.326;2.104;2023-02-13T23:37:36;16.52;;;12.00;;
61336;SDS011;47212;41.326;2.104;2023-02-13T23:42:42;13.77;;;10.95;;
61336;SDS011;47212;41.326;2.104;2023-02-13T23:47:48;18.00;;;11.65;;
61336;SDS011;47212;41.326;2.104;2023-02-13T23:52:59;15.73;;;11.43;;
61336;SDS011;47212;41.326;2.104;2023-02-13T23:58:07;16.17;;;12.03;;
